Flight Track Log - Related Links

Times and Time Zones

All times are in EDT time to prevent confusion due to time zone crossing. See the AAL1554 flight status page for this flight to view local times or setup timezone preferences in your user account.

Time Position Orientation Groundspeed Altitude Reporting Facility
EDT Latitude Longitude Course Direction KTS MPH feet Rate Location/Type
Wed 04:43:10 PM 33.6480 -117.8850 204° Southwest 167 192 1,600  Level FlightAware ADS-B
Wed 04:43:38 PM 33.6220 -117.8920 193° South 219 252 2,100 1,364 Climbing FlightAware ADS-B
Wed 04:43:54 PM 33.6050 -117.8950 188° South 243 280 2,600 2,400 Climbing FlightAware ADS-B
Wed 04:44:43 PM 33.5480 -117.8840 171° South 283 326 4,700 2,531 Climbing FlightAware ADS-B
Wed 04:44:58 PM 33.5350 -117.8670 133° Southeast 290 334 5,300 2,889 Climbing FlightAware ADS-B
Wed 04:45:10 PM 33.5290 -117.8470 110° East 291 335 6,000 3,130 Climbing FlightAware ADS-B
Wed 04:45:21 PM 33.5280 -117.8310 94° East 292 336 6,500 3,209 Climbing FlightAware ADS-B
Wed 04:45:53 PM 33.5370 -117.7800 78° East 289 333 8,300 2,945 Climbing FlightAware ADS-B
Wed 04:46:16 PM 33.5460 -117.7430 74° East 304 350 9,200 2,459 Climbing FlightAware ADS-B
Wed 04:46:54 PM 33.5550 -117.6780 81° East 322 371 10,800 1,875 Climbing FlightAware ADS-B
Wed 04:47:36 PM 33.5660 -117.6010 80° East 369 425 11,700 1,778 Climbing FlightAware ADS-B
Wed 04:48:15 PM 33.5780 -117.5180 80° East 389 448 13,200 2,341 Climbing FlightAware ADS-B
Wed 04:48:58 PM 33.5860 -117.4210 84° East 405 466 14,900 2,629 Climbing FlightAware ADS-B
Wed 04:49:44 PM 33.5890 -117.3210 88° East 400 460 17,100 2,581 Climbing FlightAware ADS-B
Wed 04:50:24 PM 33.5930 -117.2290 87° East 405 466 18,600 2,195 Climbing FlightAware ADS-B
Wed 04:51:06 PM 33.5970 -117.1340 87° East 412 474 20,100 1,846 Climbing FlightAware ADS-B
Wed 04:51:42 PM 33.5990 -117.0500 88° East 426 490 21,000 1,519 Climbing FlightAware ADS-B
Wed 04:52:25 PM 33.6030 -116.9470 87° East 441 507 22,100 1,807 Climbing FlightAware ADS-B
Wed 04:53:05 PM 33.6060 -116.8490 88° East 442 509 23,500 1,875 Climbing FlightAware ADS-B
Wed 04:53:45 PM 33.6100 -116.7500 87° East 446 513 24,600 1,429 Climbing FlightAware ADS-B
Wed 04:54:29 PM 33.6250 -116.6450 80° East 462 532 25,500 1,129 Climbing FlightAware ADS-B
Wed 04:55:10 PM 33.6470 -116.5560 73° East 474 545 26,200 1,047 Climbing FlightAware ADS-B
Wed 04:55:55 PM 33.6770 -116.4390 73° East 486 559 27,000 1,129 Climbing FlightAware ADS-B
Wed 04:56:35 PM 33.6970 -116.3460 75° East 488 562 27,800 1,350 Climbing FlightAware ADS-B
Wed 04:57:15 PM 33.7100 -116.2270 82° East 492 566 28,800 1,500 Climbing FlightAware ADS-B
Wed 04:57:55 PM 33.7220 -116.1190 82° East 491 565 29,800 1,412 Climbing FlightAware ADS-B
Wed 04:58:40 PM 33.7360 -115.9980 82° East 494 568 30,800 1,467 Climbing FlightAware ADS-B
Wed 04:59:25 PM 33.7490 -115.8790 82° East 488 562 32,000 1,482 Climbing FlightAware ADS-B
Wed 05:00:05 PM 33.7610 -115.7690 82° East 487 560 32,900 1,185 Climbing FlightAware ADS-B
Wed 05:00:46 PM 33.7730 -115.6620 82° East 492 566 33,600 1,050 Climbing FlightAware ADS-B
Wed 05:01:25 PM 33.7850 -115.5490 83° East 495 570 34,300 1,000 Climbing FlightAware ADS-B
Wed 05:02:10 PM 33.7980 -115.4340 82° East 494 568 35,000 467 Climbing FlightAware ADS-B
Wed 05:02:55 PM 33.8100 -115.3170 83° East 493 567 35,000  Level FlightAware ADS-B
Wed 05:03:30 PM 33.8210 -115.2200 82° East 492 566 35,000  Level FlightAware ADS-B
Wed 05:04:25 PM 33.8360 -115.0750 83° East 491 565 35,000  Level FlightAware ADS-B
Wed 05:05:01 PM 33.8460 -114.9920 82° East 491 565 35,000  Level FlightAware ADS-B
Wed 05:05:49 PM 33.8590 -114.8820 82° East 491 565 35,000 531 Level FlightAware ADS-B
Wed 05:06:54 PM 33.8770 -114.6740 84° East 490 564 36,000 720 Climbing FlightAware ADS-B
Wed 05:07:54 PM 33.8920 -114.5240 83° East 491 565 36,500 250 Climbing FlightAware ADS-B
Wed 05:08:54 PM 33.9060 -114.3860 83° East 491 565 36,500 283 Level FlightAware ADS-B
Wed 05:09:40 PM 33.9200 -114.2430 83° East 492 566 37,000 361 Climbing FlightAware ADS-B
Wed 05:10:17 PM 33.9330 -114.1090 83° East 496 571 37,000  Level FlightAware ADS-B
Wed 05:11:00 PM 33.9450 -113.9750 84° East 496 571 37,000  Level FlightAware ADS-B
Wed 05:11:38 PM 33.9530 -113.8940 83° East 496 571 37,000  Level FlightAware ADS-B
Wed 05:12:18 PM 33.9610 -113.7820 85° East 495 570 37,000  Level FlightAware ADS-B
Wed 05:13:02 PM 33.9590 -113.6390 91° East 494 568 37,000  Level FlightAware ADS-B
Wed 05:13:43 PM 33.9580 -113.5290 91° East 493 567 37,000  Level FlightAware ADS-B
Wed 05:14:28 PM 33.9570 -113.4190 91° East 492 566 37,000  Level FlightAware ADS-B
Wed 05:15:06 PM 33.9530 -113.3270 93° East 491 565 37,000  Level FlightAware ADS-B
Wed 05:15:47 PM 33.9490 -113.2170 92° East 491 565 37,000  Level FlightAware ADS-B
Wed 05:16:25 PM 33.9440 -113.1050 93° East 490 564 37,000  Level FlightAware ADS-B
Wed 05:17:12 PM 33.9390 -112.9910 93° East 489 563 37,000  Level FlightAware ADS-B
Wed 05:17:50 PM 33.9330 -112.8570 93° East 487 560 37,000  Level FlightAware ADS-B
Wed 05:18:25 PM 33.9290 -112.7620 93° East 486 559 37,000  Level FlightAware ADS-B
Wed 05:19:08 PM 33.9230 -112.6430 93° East 484 557 37,000  Level FlightAware ADS-B
Wed 05:19:50 PM 33.9180 -112.5310 93° East 482 555 37,000  Level FlightAware ADS-B
Wed 05:20:33 PM 33.9130 -112.4170 93° East 481 554 37,000  Level FlightAware ADS-B
Wed 05:21:12 PM 33.9080 -112.3130 93° East 480 552 37,000  Level FlightAware ADS-B
Wed 05:21:58 PM 33.8920 -112.1910 99° East 479 551 37,000  Level FlightAware ADS-B
Wed 05:22:34 PM 33.8690 -112.1010 107° East 477 549 37,000  Level FlightAware ADS-B
Wed 05:23:16 PM 33.8370 -111.9960 110° East 476 548 37,000  Level FlightAware ADS-B
Wed 05:23:57 PM 33.8060 -111.8980 111° Southeast 476 548 37,000  Level FlightAware ADS-B
Wed 05:24:36 PM 33.7760 -111.7980 110° East 474 545 37,000  Level FlightAware ADS-B
Wed 05:25:16 PM 33.7460 -111.6990 110° East 473 544 37,000  Level FlightAware ADS-B
Wed 05:26:00 PM 33.7130 -111.5910 110° East 473 544 37,000  Level FlightAware ADS-B
Wed 05:26:44 PM 33.6800 -111.4830 110° East 472 543 37,000  Level FlightAware ADS-B
Wed 05:27:26 PM 33.6480 -111.3800 110° East 472 543 37,000  Level FlightAware ADS-B
Wed 05:28:06 PM 33.6180 -111.2800 110° East 472 543 37,000  Level FlightAware ADS-B
Wed 05:28:44 PM 33.5910 -111.1920 110° East 472 543 37,000  Level FlightAware ADS-B
Wed 05:29:21 PM 33.5680 -111.1180 110° East 473 544 37,000  Level FlightAware ADS-B
Wed 05:30:06 PM 33.5340 -111.0070 110° East 473 544 37,000  Level FlightAware ADS-B
Wed 05:30:35 PM 33.5100 -110.9320 111° Southeast 472 543 37,000  Level FlightAware ADS-B
Wed 05:31:23 PM 33.4780 -110.8290 110° East 471 542 37,000  Level FlightAware ADS-B
Wed 05:32:04 PM 33.4390 -110.7040 110° East 469 540 37,000  Level FlightAware ADS-B
Wed 05:33:02 PM 33.4100 -110.6090 110° East 467 537 37,000  Level FlightAware ADS-B
Wed 05:33:58 PM 33.3630 -110.4580 110° East 466 536 37,000  Level FlightAware ADS-B
Wed 05:34:36 PM 33.3390 -110.3800 110° East 466 536 37,000  Level FlightAware ADS-B
Wed 05:35:20 PM 33.2890 -110.2270 111° Southeast 463 533 37,000  Level FlightAware ADS-B
Wed 05:35:54 PM 33.2630 -110.1470 111° Southeast 464 534 37,000  Level FlightAware ADS-B
Wed 05:36:38 PM 33.2300 -110.0410 110° East 464 534 37,000  Level FlightAware ADS-B
Wed 05:37:28 PM 33.1910 -109.9210 111° Southeast 463 533 37,000  Level FlightAware ADS-B
Wed 05:38:09 PM 33.1610 -109.8250 110° East 464 534 37,000  Level FlightAware ADS-B
Wed 05:38:50 PM 33.1290 -109.7260 111° Southeast 465 535 37,000  Level FlightAware ADS-B
Wed 05:39:34 PM 33.0940 -109.6200 111° Southeast 466 536 37,000  Level FlightAware ADS-B
Wed 05:40:18 PM 33.0600 -109.5140 111° Southeast 468 539 37,000  Level FlightAware ADS-B
Wed 05:40:58 PM 33.0290 -109.4170 111° Southeast 469 540 37,000  Level FlightAware ADS-B
Wed 05:41:38 PM 32.9970 -109.3220 112° Southeast 469 540 37,000  Level FlightAware ADS-B
Wed 05:42:25 PM 32.9660 -109.2250 111° Southeast 469 540 37,000  Level FlightAware ADS-B
Wed 05:43:10 PM 32.9260 -109.1030 111° Southeast 471 542 37,000  Level FlightAware ADS-B
Wed 05:43:51 PM 32.8930 -109.0030 111° Southeast 471 542 37,000  Level FlightAware ADS-B
Wed 05:44:28 PM 32.8630 -108.9140 112° Southeast 470 541 37,000  Level FlightAware ADS-B
Wed 05:45:12 PM 32.8280 -108.8090 112° Southeast 469 540 37,000  Level FlightAware ADS-B
Wed 05:45:47 PM 32.8030 -108.7330 111° Southeast 468 539 37,000  Level FlightAware ADS-B
Wed 05:46:51 PM 32.7550 -108.5850 111° Southeast 466 536 37,000  Level FlightAware ADS-B
Wed 05:47:28 PM 32.7300 -108.5100 112° Southeast 466 536 37,000  Level FlightAware ADS-B
Wed 05:48:29 PM 32.6900 -108.3860 111° Southeast 466 536 37,000  Level FlightAware ADS-B
Wed 05:49:24 PM 32.6270 -108.2100 113° Southeast 465 535 37,000  Level FlightAware ADS-B
Wed 05:50:07 PM 32.5990 -108.1230 111° Southeast 465 535 37,000  Level FlightAware ADS-B
Wed 05:50:53 PM 32.5690 -108.0300 111° Southeast 465 535 37,000  Level FlightAware ADS-B
Wed 05:51:29 PM 32.5450 -107.9570 111° Southeast 465 535 37,000  Level FlightAware ADS-B
Wed 05:52:05 PM 32.5220 -107.8840 110° East 465 535 37,000  Level FlightAware ADS-B
Wed 05:52:51 PM 32.4920 -107.7910 111° Southeast 465 535 37,000  Level FlightAware ADS-B
Wed 05:53:27 PM 32.4680 -107.7180 111° Southeast 465 535 37,000  Level FlightAware ADS-B
Wed 05:54:17 PM 32.4350 -107.6170 111° Southeast 465 535 37,000  Level FlightAware ADS-B
Wed 05:54:53 PM 32.4120 -107.5440 110° East 465 535 37,000  Level FlightAware ADS-B
Wed 05:55:37 PM 32.3270 -107.3350 116° Southeast 466 536 37,000  Level FlightAware ADS-B
Wed 05:56:57 PM 32.2600 -107.1420 112° Southeast 466 536 37,000  Level FlightAware ADS-B
Wed 05:57:32 PM 32.2320 -107.0610 112° Southeast 467 537 37,000  Level FlightAware ADS-B
Wed 05:58:27 PM 32.1860 -106.9320 113° Southeast 468 539 37,000  Level FlightAware ADS-B
Wed 05:59:07 PM 32.1570 -106.8350 109° East 469 540 37,000  Level FlightAware ADS-B
Wed 05:59:52 PM 32.1350 -106.7230 103° East 470 541 37,000  Level FlightAware ADS-B
Wed 06:00:33 PM 32.1160 -106.6240 103° East 470 541 37,000  Level FlightAware ADS-B
Wed 06:01:12 PM 32.0960 -106.5230 103° East 471 542 37,000  Level FlightAware ADS-B
Wed 06:01:58 PM 32.0730 -106.4120 104° East 472 543 37,000  Level FlightAware ADS-B
Wed 06:02:42 PM 32.0510 -106.3000 103° East 471 542 37,000  Level FlightAware ADS-B
Wed 06:03:22 PM 32.0310 -106.2010 103° East 473 544 37,000  Level FlightAware ADS-B
Wed 06:04:02 PM 32.0110 -106.1010 103° East 472 543 37,000  Level FlightAware ADS-B
Wed 06:04:52 PM 31.9870 -105.9850 104° East 472 543 37,000  Level FlightAware ADS-B
Wed 06:05:40 PM 31.9670 -105.8820 103° East 472 543 37,000  Level FlightAware ADS-B
Wed 06:06:40 PM 31.9420 -105.7540 103° East 472 543 37,000  Level FlightAware ADS-B
Wed 06:07:15 PM 31.9280 -105.6800 103° East 472 543 37,000  Level FlightAware ADS-B
Wed 06:08:03 PM 31.9080 -105.5780 103° East 472 543 37,000  Level FlightAware ADS-B
Wed 06:08:40 PM 31.8920 -105.4990 103° East 472 543 37,000  Level FlightAware ADS-B
Wed 06:09:41 PM 31.8670 -105.3690 103° East 472 543 37,000  Level FlightAware ADS-B
Wed 06:10:25 PM 31.8480 -105.2750 103° East 472 543 37,000  Level FlightAware ADS-B
Wed 06:11:11 PM 31.8290 -105.1770 103° East 472 543 37,000  Level FlightAware ADS-B
Wed 06:12:00 PM 31.8090 -105.0730 103° East 472 543 37,000  Level FlightAware ADS-B
Wed 06:12:35 PM 31.7940 -104.9980 103° East 472 543 37,000 1,538 Level FlightAware ADS-B
Wed 06:13:18 PM 31.6300 -104.7650 130° Southeast 459 528 39,000 1,348 Climbing FlightAware ADS-B
Wed 06:14:04 PM 31.6120 -104.6530 101° East 460 529 39,000  Level FlightAware ADS-B
Wed 06:14:49 PM 31.5980 -104.5420 98° East 461 531 39,000  Level FlightAware ADS-B
Wed 06:15:28 PM 31.5850 -104.4460 99° East 458 527 39,000  Level FlightAware ADS-B
Wed 06:16:22 PM 31.5700 -104.3240 98° East 447 514 39,000  Level FlightAware ADS-B
Wed 06:16:40 PM 31.5750 -104.2720 84° East 442 509 39,000  Level FlightAware ADS-B
Wed 06:17:18 PM 31.5910 -104.1970 76° East 442 509 39,000  Level FlightAware ADS-B
Wed 06:17:54 PM 31.6060 -104.1250 76° East 442 509 39,000  Level FlightAware ADS-B
Wed 06:18:56 PM 31.6320 -104.0030 76° East 442 509 39,000  Level FlightAware ADS-B
Wed 06:19:45 PM 31.6520 -103.9050 76° East 442 509 39,000  Level FlightAware ADS-B
Wed 06:20:22 PM 31.6680 -103.8320 76° East 442 509 39,000  Level FlightAware ADS-B
Wed 06:20:58 PM 31.6830 -103.7610 76° East 442 509 39,000  Level FlightAware ADS-B
Wed 06:21:34 PM 31.6980 -103.6890 76° East 442 509 39,000  Level FlightAware ADS-B
Wed 06:22:38 PM 31.7250 -103.5630 76° East 442 509 39,000  Level FlightAware ADS-B
Wed 06:23:26 PM 31.7450 -103.4670 76° East 442 509 39,000  Level FlightAware ADS-B
Wed 06:24:02 PM 31.7600 -103.3960 76° East 442 509 39,000  Level FlightAware ADS-B
Wed 06:24:38 PM 31.7750 -103.3250 76° East 442 509 39,000  Level FlightAware ADS-B
Wed 06:25:26 PM 31.7960 -103.2290 76° East 442 509 39,000  Level FlightAware ADS-B
Wed 06:26:03 PM 31.8110 -103.1560 76° East 442 509 39,000  Level FlightAware ADS-B
Wed 06:28:57 PM 31.9510 -102.5560 74° East 457 526 39,000  Level FlightAware ADS-B
Wed 06:29:59 PM 31.9600 -102.4250 85° East 457 526 39,000  Level FlightAware ADS-B
Wed 06:30:36 PM 31.9660 -102.3470 85° East 457 526 39,000  Level FlightAware ADS-B
Wed 06:31:24 PM 31.9740 -102.2450 85° East 457 526 39,000  Level FlightAware ADS-B
Wed 06:32:12 PM 31.9810 -102.1440 85° East 457 526 39,000  Level FlightAware ADS-B
Wed 06:32:49 PM 31.9870 -102.0660 85° East 457 526 39,000  Level FlightAware ADS-B
Wed 06:33:28 PM 31.9920 -101.8610 88° East 461 531 39,000  Level FlightAware ADS-B
Wed 06:34:10 PM 31.9980 -101.7570 86° East 462 532 39,000  Level FlightAware ADS-B
Wed 06:34:51 PM 32.0040 -101.6570 86° East 464 534 39,000  Level FlightAware ADS-B
Wed 06:35:35 PM 32.0100 -101.5420 86° East 463 533 39,000  Level FlightAware ADS-B
Wed 06:36:15 PM 32.0160 -101.4420 86° East 462 532 39,000  Level FlightAware ADS-B
Wed 06:36:55 PM 32.0210 -101.3410 87° East 460 529 39,000  Level FlightAware ADS-B
Wed 06:37:37 PM 32.0270 -101.2370 86° East 460 529 39,000  Level FlightAware ADS-B
Wed 06:38:19 PM 32.0320 -101.1310 87° East 460 529 39,000  Level FlightAware ADS-B
Wed 06:38:55 PM 32.0370 -101.0410 86° East 460 529 39,000  Level FlightAware ADS-B
Wed 06:39:39 PM 32.0420 -100.9310 87° East 461 531 39,000  Level FlightAware ADS-B
Wed 06:40:13 PM 32.0470 -100.8450 86° East 460 529 39,000  Level FlightAware ADS-B
Wed 06:41:03 PM 32.0530 -100.7200 87° East 461 531 39,000  Level FlightAware ADS-B
Wed 06:41:43 PM 32.0580 -100.6230 86° East 461 531 39,000  Level FlightAware ADS-B
Wed 06:42:25 PM 32.0630 -100.5160 87° East 462 532 39,000  Level FlightAware ADS-B
Wed 06:43:07 PM 32.0680 -100.4110 87° East 463 533 39,000  Level FlightAware ADS-B
Wed 06:43:41 PM 32.0710 -100.3280 88° East 464 534 39,000  Level FlightAware ADS-B
Wed 06:44:23 PM 32.0760 -100.2210 87° East 463 533 39,000  Level FlightAware ADS-B
Wed 06:45:07 PM 32.0810 -100.1080 87° East 463 533 39,000  Level FlightAware ADS-B
Wed 06:45:39 PM 32.0850 -100.0290 87° East 463 533 39,000  Level FlightAware ADS-B
Wed 06:46:23 PM 32.0900 -99.9150 87° East 463 533 39,000  Level FlightAware ADS-B
Wed 06:47:07 PM 32.0940 -99.8050 88° East 463 533 39,000  Level FlightAware ADS-B
Wed 06:47:45 PM 32.0980 -99.7090 87° East 464 534 39,000  Level FlightAware ADS-B
Wed 06:48:31 PM 32.1030 -99.5930 87° East 464 534 39,000 -276 Level FlightAware ADS-B
Wed 06:49:12 PM 32.1070 -99.4910 87° East 466 536 38,600 -786 Descending FlightAware ADS-B
Wed 06:49:55 PM 32.1110 -99.3800 88° East 471 542 37,900 -960 Descending FlightAware ADS-B
Wed 06:50:27 PM 32.1140 -99.2990 87° East 472 543 37,400 -1,263 Descending FlightAware ADS-B
Wed 06:51:11 PM 32.1210 -99.1840 86° East 472 543 36,300 -2,372 Descending FlightAware ADS-B
Wed 06:51:53 PM 32.1370 -99.0810 80° East 481 554 34,000 -3,342 Descending FlightAware ADS-B
Wed 06:52:30 PM 32.1520 -98.9820 80° East 486 559 31,900 -2,961 Descending FlightAware ADS-B
Wed 06:53:10 PM 32.1670 -98.8810 80° East 481 554 30,200 -2,561 Descending FlightAware ADS-B
Wed 06:53:52 PM 32.1820 -98.7740 81° East 472 543 28,400 -2,526 Descending FlightAware ADS-B
Wed 06:54:26 PM 32.1950 -98.6850 80° East 462 532 27,000 -2,582 Descending FlightAware ADS-B
Wed 06:55:11 PM 32.2100 -98.5790 80° East 457 526 25,000 -2,357 Descending FlightAware ADS-B
Wed 06:55:50 PM 32.2250 -98.4810 80° East 438 504 23,700 -2,222 Descending FlightAware ADS-B
Wed 06:56:32 PM 32.2390 -98.3840 80° East 425 489 22,000 -2,634 Descending FlightAware ADS-B
Wed 06:57:12 PM 32.2510 -98.2960 81° East 426 490 20,100 -2,714 Descending FlightAware ADS-B
Wed 06:57:56 PM 32.2660 -98.1950 80° East 413 475 18,200 -2,455 Descending FlightAware ADS-B
Wed 06:58:40 PM 32.2790 -98.0980 81° East 396 456 16,500 -2,341 Descending FlightAware ADS-B
Wed 06:59:18 PM 32.2910 -98.0190 80° East 386 444 15,000 -2,231 Descending FlightAware ADS-B
Wed 06:59:58 PM 32.3020 -97.9370 81° East 372 428 13,600 -2,100 Descending FlightAware ADS-B
Wed 07:00:38 PM 32.3130 -97.8600 80° East 362 417 12,200 -1,650 Descending FlightAware ADS-B
Wed 07:01:18 PM 32.3240 -97.7820 81° East 350 403 11,400 -878 Descending FlightAware ADS-B
Wed 07:02:00 PM 32.3340 -97.7050 81° East 315 362 11,000 -583 Descending FlightAware ADS-B
Wed 07:02:30 PM 32.3460 -97.6590 73° East 291 335 10,700 -913 Descending FlightAware ADS-B
Wed 07:02:46 PM 32.3590 -97.6400 51° Northeast 288 331 10,300 -1,500 Descending FlightAware ADS-B
Wed 07:03:10 PM 32.3830 -97.6120 45° Northeast 288 331 9,700 -1,444 Descending FlightAware ADS-B
Wed 07:03:40 PM 32.4100 -97.5790 46° Northeast 286 329 9,000 -1,552 Descending FlightAware ADS-B
Wed 07:04:08 PM 32.4370 -97.5460 46° Northeast 289 333 8,200 -1,500 Descending FlightAware ADS-B
Wed 07:04:28 PM 32.4550 -97.5250 45° Northeast 286 329 7,800 -1,250 Descending FlightAware ADS-B
Wed 07:04:56 PM 32.4810 -97.4940 45° Northeast 280 322 7,200 -1,138 Descending FlightAware ADS-B
Wed 07:05:26 PM 32.5020 -97.4580 55° Northeast 271 312 6,700 -1,241 Descending FlightAware ADS-B
Wed 07:05:54 PM 32.5100 -97.4190 76° East 270 311 6,000 -1,412 Descending FlightAware ADS-B
Wed 07:06:17 PM 32.5210 -97.3860 68° East 267 307 5,500 -1,277 Descending FlightAware ADS-B
Wed 07:06:41 PM 32.5340 -97.3540 64° Northeast 269 310 5,000 -556 Descending FlightAware ADS-B
Wed 07:07:11 PM 32.5490 -97.3140 66° East 260 299 5,000  Level FlightAware ADS-B
Wed 07:07:37 PM 32.5610 -97.2820 66° East 239 275 5,000  Level FlightAware ADS-B
Wed 07:08:05 PM 32.5730 -97.2490 67° East 231 266 5,000  Level FlightAware ADS-B
Wed 07:08:27 PM 32.5830 -97.2240 65° Northeast 229 264 5,000 -231 Level FlightAware ADS-B
Wed 07:08:57 PM 32.5960 -97.1900 66° East 222 255 4,800 -1,034 Descending FlightAware ADS-B
Wed 07:09:25 PM 32.6080 -97.1580 66° East 223 257 4,000 -1,286 Descending FlightAware ADS-B
Wed 07:09:53 PM 32.6190 -97.1270 67° East 215 247 3,600 -692 Descending FlightAware ADS-B
Wed 07:10:17 PM 32.6290 -97.1020 65° Northeast 197 227 3,400 -462 Descending FlightAware ADS-B
Wed 07:10:45 PM 32.6380 -97.0770 67° East 185 213 3,200 -545 Descending FlightAware ADS-B
Wed 07:11:01 PM 32.6490 -97.0650 43° Northeast 182 209 3,000 -286 Descending FlightAware ADS-B
Wed 07:11:27 PM 32.6690 -97.0560 21° North 185 213 3,000  Level FlightAware ADS-B
Wed 07:11:59 PM 32.6970 -97.0560 360° North 188 216 3,000  Level FlightAware ADS-B
Wed 07:12:17 PM 32.7120 -97.0560 360° North 186 214 3,000  Level FlightAware ADS-B
Wed 07:12:49 PM 32.7360 -97.0560 360° North 187 215 3,000 -551 Level FlightAware ADS-B
Wed 07:13:55 PM 32.7980 -97.0550 North 188 216 2,100 -849 Descending FlightAware ADS-B
Wed 07:14:35 PM 32.8310 -97.0550 360° North 165 190 1,500 -635 Descending FlightAware ADS-B
Wed 07:15:39 PM 32.8730 -97.0550 360° North 152 175 1,000 -469 Descending FlightAware ADS-B

Login

Don't have an account? Register now (free) for customized features, flight alerts, and more!